sensor_id;sensor_type;location;lat;lon;timestamp;P1;durP1;ratioP1;P2;durP2;ratioP2
27025;SDS011;14565;48.626;8.978;2023-07-29T00:01:23;4.65;;;1.40;;
27025;SDS011;14565;48.626;8.978;2023-07-29T00:03:49;5.13;;;1.70;;
27025;SDS011;14565;48.626;8.978;2023-07-29T00:06:14;2.08;;;1.23;;
27025;SDS011;14565;48.626;8.978;2023-07-29T00:08:40;2.28;;;1.60;;
27025;SDS011;14565;48.626;8.978;2023-07-29T00:11:06;1.75;;;1.40;;
27025;SDS011;14565;48.626;8.978;2023-07-29T00:13:31;4.25;;;1.63;;
27025;SDS011;14565;48.626;8.978;2023-07-29T00:15:57;4.32;;;1.63;;
27025;SDS011;14565;48.626;8.978;2023-07-29T00:18:23;2.65;;;1.60;;
27025;SDS011;14565;48.626;8.978;2023-07-29T00:20:49;3.42;;;1.65;;
27025;SDS011;14565;48.626;8.978;2023-07-29T00:23:16;2.70;;;1.65;;
27025;SDS011;14565;48.626;8.978;2023-07-29T00:25:44;3.55;;;1.40;;
27025;SDS011;14565;48.626;8.978;2023-07-29T00:28:09;2.15;;;1.40;;
27025;SDS011;14565;48.626;8.978;2023-07-29T00:30:36;3.17;;;1.27;;
27025;SDS011;14565;48.626;8.978;2023-07-29T00:33:02;7.03;;;1.58;;
27025;SDS011;14565;48.626;8.978;2023-07-29T00:35:27;2.70;;;1.50;;
27025;SDS011;14565;48.626;8.978;2023-07-29T00:37:53;4.90;;;1.70;;
27025;SDS011;14565;48.626;8.978;2023-07-29T00:40:19;2.15;;;1.73;;
27025;SDS011;14565;48.626;8.978;2023-07-29T00:42:46;5.38;;;1.35;;
27025;SDS011;14565;48.626;8.978;2023-07-29T00:45:12;4.47;;;1.80;;
27025;SDS011;14565;48.626;8.978;2023-07-29T00:47:38;3.83;;;1.52;;
27025;SDS011;14565;48.626;8.978;2023-07-29T00:50:05;3.90;;;1.40;;
27025;SDS011;14565;48.626;8.978;2023-07-29T00:52:31;2.60;;;1.48;;
27025;SDS011;14565;48.626;8.978;2023-07-29T00:54:57;3.13;;;1.40;;
27025;SDS011;14565;48.626;8.978;2023-07-29T00:57:23;4.90;;;1.60;;
27025;SDS011;14565;48.626;8.978;2023-07-29T00:59:50;4.20;;;1.80;;
27025;SDS011;14565;48.626;8.978;2023-07-29T01:02:16;3.47;;;1.20;;
27025;SDS011;14565;48.626;8.978;2023-07-29T01:04:42;2.78;;;1.40;;
27025;SDS011;14565;48.626;8.978;2023-07-29T01:12:45;4.43;;;1.52;;
27025;SDS011;14565;48.626;8.978;2023-07-29T01:15:26;3.35;;;1.75;;
27025;SDS011;14565;48.626;8.978;2023-07-29T01:18:04;5.00;;;1.58;;
27025;SDS011;14565;48.626;8.978;2023-07-29T01:20:33;3.45;;;1.40;;
27025;SDS011;14565;48.626;8.978;2023-07-29T01:25:26;2.70;;;1.52;;
27025;SDS011;14565;48.626;8.978;2023-07-29T01:27:52;2.53;;;1.55;;
27025;SDS011;14565;48.626;8.978;2023-07-29T01:30:18;5.63;;;1.85;;
27025;SDS011;14565;48.626;8.978;2023-07-29T01:35:23;2.58;;;1.65;;
27025;SDS011;14565;48.626;8.978;2023-07-29T01:38:05;2.45;;;1.45;;
27025;SDS011;14565;48.626;8.978;2023-07-29T01:40:35;6.72;;;1.70;;
27025;SDS011;14565;48.626;8.978;2023-07-29T01:43:01;2.55;;;1.67;;
27025;SDS011;14565;48.626;8.978;2023-07-29T01:45:27;2.88;;;1.60;;
27025;SDS011;14565;48.626;8.978;2023-07-29T01:47:56;2.85;;;1.70;;
27025;SDS011;14565;48.626;8.978;2023-07-29T01:50:22;6.60;;;1.80;;
27025;SDS011;14565;48.626;8.978;2023-07-29T01:52:48;4.32;;;1.60;;
27025;SDS011;14565;48.626;8.978;2023-07-29T01:55:13;5.82;;;2.03;;
27025;SDS011;14565;48.626;8.978;2023-07-29T01:57:39;3.80;;;1.90;;
27025;SDS011;14565;48.626;8.978;2023-07-29T02:00:05;2.58;;;1.75;;
27025;SDS011;14565;48.626;8.978;2023-07-29T02:02:31;3.25;;;2.05;;
27025;SDS011;14565;48.626;8.978;2023-07-29T02:04:57;3.50;;;1.90;;
27025;SDS011;14565;48.626;8.978;2023-07-29T02:07:23;3.42;;;1.80;;
27025;SDS011;14565;48.626;8.978;2023-07-29T02:09:51;2.28;;;1.60;;
27025;SDS011;14565;48.626;8.978;2023-07-29T02:12:17;4.15;;;1.90;;
27025;SDS011;14565;48.626;8.978;2023-07-29T02:14:42;5.25;;;1.90;;
27025;SDS011;14565;48.626;8.978;2023-07-29T02:17:08;6.95;;;2.30;;
27025;SDS011;14565;48.626;8.978;2023-07-29T02:19:34;3.45;;;1.83;;
27025;SDS011;14565;48.626;8.978;2023-07-29T02:22:00;6.43;;;1.92;;
27025;SDS011;14565;48.626;8.978;2023-07-29T02:24:25;3.17;;;2.30;;
27025;SDS011;14565;48.626;8.978;2023-07-29T02:26:51;6.72;;;2.20;;
27025;SDS011;14565;48.626;8.978;2023-07-29T02:29:17;5.47;;;2.20;;
27025;SDS011;14565;48.626;8.978;2023-07-29T02:31:42;3.08;;;2.30;;
27025;SDS011;14565;48.626;8.978;2023-07-29T02:34:09;3.78;;;2.17;;
27025;SDS011;14565;48.626;8.978;2023-07-29T02:36:35;4.57;;;2.05;;
27025;SDS011;14565;48.626;8.978;2023-07-29T02:39:00;6.00;;;2.42;;
27025;SDS011;14565;48.626;8.978;2023-07-29T02:41:26;4.40;;;2.30;;
27025;SDS011;14565;48.626;8.978;2023-07-29T02:43:52;3.53;;;2.30;;
27025;SDS011;14565;48.626;8.978;2023-07-29T02:46:18;7.38;;;2.13;;
27025;SDS011;14565;48.626;8.978;2023-07-29T02:48:44;3.35;;;2.10;;
27025;SDS011;14565;48.626;8.978;2023-07-29T02:51:10;3.58;;;2.00;;
27025;SDS011;14565;48.626;8.978;2023-07-29T02:53:35;5.63;;;2.13;;
27025;SDS011;14565;48.626;8.978;2023-07-29T02:56:02;2.35;;;1.95;;
27025;SDS011;14565;48.626;8.978;2023-07-29T02:58:28;2.58;;;1.70;;
27025;SDS011;14565;48.626;8.978;2023-07-29T03:01:00;3.38;;;2.25;;
27025;SDS011;14565;48.626;8.978;2023-07-29T03:03:29;4.85;;;2.10;;
27025;SDS011;14565;48.626;8.978;2023-07-29T03:06:02;8.60;;;2.30;;
27025;SDS011;14565;48.626;8.978;2023-07-29T03:08:29;4.20;;;2.28;;
27025;SDS011;14565;48.626;8.978;2023-07-29T03:10:55;3.72;;;2.15;;
27025;SDS011;14565;48.626;8.978;2023-07-29T03:13:22;5.57;;;2.58;;
27025;SDS011;14565;48.626;8.978;2023-07-29T03:15:47;3.15;;;2.17;;
27025;SDS011;14565;48.626;8.978;2023-07-29T03:18:14;6.70;;;2.65;;
27025;SDS011;14565;48.626;8.978;2023-07-29T03:20:40;4.50;;;2.20;;
27025;SDS011;14565;48.626;8.978;2023-07-29T03:23:05;2.58;;;2.10;;
27025;SDS011;14565;48.626;8.978;2023-07-29T03:25:31;3.95;;;2.25;;
27025;SDS011;14565;48.626;8.978;2023-07-29T03:27:57;4.07;;;2.38;;
27025;SDS011;14565;48.626;8.978;2023-07-29T03:30:23;2.90;;;2.22;;
27025;SDS011;14565;48.626;8.978;2023-07-29T03:32:49;2.78;;;2.05;;
27025;SDS011;14565;48.626;8.978;2023-07-29T03:35:15;3.33;;;2.00;;
27025;SDS011;14565;48.626;8.978;2023-07-29T03:37:41;3.00;;;1.83;;
27025;SDS011;14565;48.626;8.978;2023-07-29T03:40:07;3.85;;;2.03;;
27025;SDS011;14565;48.626;8.978;2023-07-29T03:42:36;6.03;;;2.42;;
27025;SDS011;14565;48.626;8.978;2023-07-29T03:45:02;4.78;;;2.17;;
27025;SDS011;14565;48.626;8.978;2023-07-29T03:47:28;5.80;;;2.33;;
27025;SDS011;14565;48.626;8.978;2023-07-29T03:49:53;5.70;;;2.45;;
27025;SDS011;14565;48.626;8.978;2023-07-29T03:52:19;2.50;;;2.10;;
27025;SDS011;14565;48.626;8.978;2023-07-29T03:54:49;2.20;;;1.92;;
27025;SDS011;14565;48.626;8.978;2023-07-29T03:57:14;2.88;;;2.25;;
27025;SDS011;14565;48.626;8.978;2023-07-29T03:59:40;4.57;;;2.08;;
27025;SDS011;14565;48.626;8.978;2023-07-29T04:02:06;10.30;;;2.30;;
27025;SDS011;14565;48.626;8.978;2023-07-29T04:04:31;3.10;;;1.88;;
27025;SDS011;14565;48.626;8.978;2023-07-29T04:06:57;3.58;;;1.80;;
27025;SDS011;14565;48.626;8.978;2023-07-29T04:09:23;4.18;;;2.03;;
27025;SDS011;14565;48.626;8.978;2023-07-29T04:11:48;2.20;;;2.00;;
27025;SDS011;14565;48.626;8.978;2023-07-29T04:14:14;2.47;;;2.00;;
27025;SDS011;14565;48.626;8.978;2023-07-29T04:16:40;3.20;;;2.17;;
27025;SDS011;14565;48.626;8.978;2023-07-29T04:19:05;3.30;;;2.28;;
27025;SDS011;14565;48.626;8.978;2023-07-29T04:21:31;5.90;;;2.10;;
27025;SDS011;14565;48.626;8.978;2023-07-29T04:23:57;7.43;;;2.70;;
27025;SDS011;14565;48.626;8.978;2023-07-29T04:26:22;10.13;;;2.95;;
27025;SDS011;14565;48.626;8.978;2023-07-29T04:28:48;6.13;;;3.00;;
27025;SDS011;14565;48.626;8.978;2023-07-29T04:31:14;8.32;;;2.88;;
27025;SDS011;14565;48.626;8.978;2023-07-29T04:33:39;6.53;;;2.75;;
27025;SDS011;14565;48.626;8.978;2023-07-29T04:36:05;9.32;;;3.03;;
27025;SDS011;14565;48.626;8.978;2023-07-29T04:38:31;8.45;;;3.17;;
27025;SDS011;14565;48.626;8.978;2023-07-29T04:40:58;10.75;;;3.50;;
27025;SDS011;14565;48.626;8.978;2023-07-29T04:45:55;5.07;;;3.40;;
27025;SDS011;14565;48.626;8.978;2023-07-29T04:48:21;6.53;;;3.67;;
27025;SDS011;14565;48.626;8.978;2023-07-29T04:50:47;5.05;;;3.63;;
27025;SDS011;14565;48.626;8.978;2023-07-29T04:53:13;8.30;;;4.07;;
27025;SDS011;14565;48.626;8.978;2023-07-29T04:55:40;10.18;;;4.32;;
27025;SDS011;14565;48.626;8.978;2023-07-29T04:58:07;8.65;;;4.43;;
27025;SDS011;14565;48.626;8.978;2023-07-29T05:00:33;8.88;;;4.55;;
27025;SDS011;14565;48.626;8.978;2023-07-29T05:02:59;8.30;;;3.78;;
27025;SDS011;14565;48.626;8.978;2023-07-29T05:05:26;6.47;;;3.90;;
27025;SDS011;14565;48.626;8.978;2023-07-29T05:07:52;8.48;;;4.20;;
27025;SDS011;14565;48.626;8.978;2023-07-29T05:10:17;7.85;;;4.53;;
27025;SDS011;14565;48.626;8.978;2023-07-29T05:12:43;6.95;;;4.82;;
27025;SDS011;14565;48.626;8.978;2023-07-29T05:15:09;7.90;;;4.70;;
27025;SDS011;14565;48.626;8.978;2023-07-29T05:17:35;8.52;;;4.38;;
27025;SDS011;14565;48.626;8.978;2023-07-29T05:20:00;5.00;;;4.00;;
27025;SDS011;14565;48.626;8.978;2023-07-29T05:22:26;12.93;;;5.10;;
27025;SDS011;14565;48.626;8.978;2023-07-29T05:24:52;7.10;;;4.45;;
27025;SDS011;14565;48.626;8.978;2023-07-29T05:27:17;8.63;;;5.03;;
27025;SDS011;14565;48.626;8.978;2023-07-29T05:29:43;8.57;;;4.70;;
27025;SDS011;14565;48.626;8.978;2023-07-29T05:32:09;6.20;;;4.90;;
27025;SDS011;14565;48.626;8.978;2023-07-29T05:34:34;6.32;;;3.85;;
27025;SDS011;14565;48.626;8.978;2023-07-29T05:37:00;9.05;;;4.57;;
27025;SDS011;14565;48.626;8.978;2023-07-29T05:39:25;9.98;;;4.70;;
27025;SDS011;14565;48.626;8.978;2023-07-29T05:41:51;9.60;;;4.28;;
27025;SDS011;14565;48.626;8.978;2023-07-29T05:44:17;7.22;;;3.67;;
27025;SDS011;14565;48.626;8.978;2023-07-29T05:46:42;5.80;;;3.92;;
27025;SDS011;14565;48.626;8.978;2023-07-29T05:49:08;4.30;;;3.75;;
27025;SDS011;14565;48.626;8.978;2023-07-29T05:51:33;6.90;;;3.70;;
27025;SDS011;14565;48.626;8.978;2023-07-29T05:53:59;5.60;;;3.30;;
27025;SDS011;14565;48.626;8.978;2023-07-29T05:56:25;4.40;;;3.13;;
27025;SDS011;14565;48.626;8.978;2023-07-29T05:58:50;6.47;;;3.45;;
27025;SDS011;14565;48.626;8.978;2023-07-29T06:01:16;4.20;;;2.58;;
27025;SDS011;14565;48.626;8.978;2023-07-29T06:03:46;4.25;;;2.63;;
27025;SDS011;14565;48.626;8.978;2023-07-29T06:06:12;6.80;;;2.10;;
27025;SDS011;14565;48.626;8.978;2023-07-29T06:08:37;2.38;;;1.80;;
27025;SDS011;14565;48.626;8.978;2023-07-29T06:11:03;3.15;;;1.45;;
27025;SDS011;14565;48.626;8.978;2023-07-29T06:15:57;3.90;;;1.40;;
27025;SDS011;14565;48.626;8.978;2023-07-29T06:18:22;3.88;;;2.10;;
27025;SDS011;14565;48.626;8.978;2023-07-29T06:20:48;3.67;;;1.55;;
27025;SDS011;14565;48.626;8.978;2023-07-29T06:23:14;4.53;;;1.52;;
27025;SDS011;14565;48.626;8.978;2023-07-29T06:25:39;2.00;;;1.50;;
27025;SDS011;14565;48.626;8.978;2023-07-29T06:28:05;5.78;;;1.65;;
27025;SDS011;14565;48.626;8.978;2023-07-29T06:30:31;5.03;;;1.80;;
27025;SDS011;14565;48.626;8.978;2023-07-29T06:32:56;4.95;;;1.98;;
27025;SDS011;14565;48.626;8.978;2023-07-29T06:35:22;4.55;;;2.15;;
27025;SDS011;14565;48.626;8.978;2023-07-29T06:37:48;12.45;;;2.35;;
27025;SDS011;14565;48.626;8.978;2023-07-29T06:40:14;5.60;;;2.30;;
27025;SDS011;14565;48.626;8.978;2023-07-29T06:42:40;4.10;;;2.13;;
27025;SDS011;14565;48.626;8.978;2023-07-29T06:45:06;5.00;;;1.92;;
27025;SDS011;14565;48.626;8.978;2023-07-29T06:47:32;7.40;;;2.55;;
27025;SDS011;14565;48.626;8.978;2023-07-29T06:49:57;4.93;;;2.72;;
27025;SDS011;14565;48.626;8.978;2023-07-29T06:52:23;13.07;;;3.03;;
27025;SDS011;14565;48.626;8.978;2023-07-29T06:54:49;5.53;;;2.90;;
27025;SDS011;14565;48.626;8.978;2023-07-29T06:57:14;4.82;;;3.05;;
27025;SDS011;14565;48.626;8.978;2023-07-29T06:59:40;4.95;;;3.20;;
27025;SDS011;14565;48.626;8.978;2023-07-29T07:02:06;5.38;;;3.17;;
27025;SDS011;14565;48.626;8.978;2023-07-29T07:04:32;4.10;;;2.95;;
27025;SDS011;14565;48.626;8.978;2023-07-29T07:06:57;3.92;;;1.80;;
27025;SDS011;14565;48.626;8.978;2023-07-29T07:09:23;5.05;;;2.20;;
27025;SDS011;14565;48.626;8.978;2023-07-29T07:11:49;3.67;;;2.22;;
27025;SDS011;14565;48.626;8.978;2023-07-29T07:14:15;3.72;;;2.17;;
27025;SDS011;14565;48.626;8.978;2023-07-29T07:16:40;3.88;;;2.58;;
27025;SDS011;14565;48.626;8.978;2023-07-29T07:19:06;4.53;;;2.22;;
27025;SDS011;14565;48.626;8.978;2023-07-29T07:21:32;6.57;;;2.63;;
27025;SDS011;14565;48.626;8.978;2023-07-29T07:23:57;5.22;;;2.25;;
27025;SDS011;14565;48.626;8.978;2023-07-29T07:26:23;4.13;;;2.20;;
27025;SDS011;14565;48.626;8.978;2023-07-29T07:28:49;3.60;;;2.13;;
27025;SDS011;14565;48.626;8.978;2023-07-29T07:31:16;5.67;;;2.50;;
27025;SDS011;14565;48.626;8.978;2023-07-29T07:33:42;2.40;;;1.75;;
27025;SDS011;14565;48.626;8.978;2023-07-29T07:36:07;3.88;;;1.83;;
27025;SDS011;14565;48.626;8.978;2023-07-29T07:38:33;2.28;;;1.83;;
27025;SDS011;14565;48.626;8.978;2023-07-29T07:40:59;2.38;;;1.83;;
27025;SDS011;14565;48.626;8.978;2023-07-29T07:43:24;3.65;;;2.10;;
27025;SDS011;14565;48.626;8.978;2023-07-29T07:45:51;2.40;;;1.90;;
27025;SDS011;14565;48.626;8.978;2023-07-29T07:48:22;4.35;;;1.95;;
27025;SDS011;14565;48.626;8.978;2023-07-29T07:50:48;4.18;;;2.03;;
27025;SDS011;14565;48.626;8.978;2023-07-29T07:53:13;1.90;;;1.75;;
27025;SDS011;14565;48.626;8.978;2023-07-29T07:55:39;4.35;;;2.05;;
27025;SDS011;14565;48.626;8.978;2023-07-29T07:58:05;2.83;;;1.50;;
27025;SDS011;14565;48.626;8.978;2023-07-29T08:00:30;3.67;;;1.92;;
27025;SDS011;14565;48.626;8.978;2023-07-29T08:02:56;2.42;;;1.80;;
27025;SDS011;14565;48.626;8.978;2023-07-29T08:05:21;5.65;;;1.80;;
27025;SDS011;14565;48.626;8.978;2023-07-29T08:07:47;35.17;;;30.75;;
27025;SDS011;14565;48.626;8.978;2023-07-29T08:10:13;7.35;;;5.57;;
27025;SDS011;14565;48.626;8.978;2023-07-29T08:12:38;4.35;;;2.40;;
27025;SDS011;14565;48.626;8.978;2023-07-29T08:15:04;2.80;;;1.92;;
27025;SDS011;14565;48.626;8.978;2023-07-29T08:17:30;4.25;;;1.92;;
27025;SDS011;14565;48.626;8.978;2023-07-29T08:19:56;4.00;;;2.47;;
27025;SDS011;14565;48.626;8.978;2023-07-29T08:22:21;4.28;;;2.20;;
27025;SDS011;14565;48.626;8.978;2023-07-29T08:24:47;4.40;;;2.53;;
27025;SDS011;14565;48.626;8.978;2023-07-29T08:27:13;3.60;;;2.30;;
27025;SDS011;14565;48.626;8.978;2023-07-29T08:29:38;5.43;;;1.98;;
27025;SDS011;14565;48.626;8.978;2023-07-29T08:32:04;3.17;;;2.47;;
27025;SDS011;14565;48.626;8.978;2023-07-29T08:34:34;5.80;;;3.08;;
27025;SDS011;14565;48.626;8.978;2023-07-29T08:36:59;2.95;;;1.80;;
27025;SDS011;14565;48.626;8.978;2023-07-29T08:39:29;1.85;;;1.60;;
27025;SDS011;14565;48.626;8.978;2023-07-29T08:42:02;3.47;;;1.58;;
27025;SDS011;14565;48.626;8.978;2023-07-29T08:44:31;2.67;;;1.30;;
27025;SDS011;14565;48.626;8.978;2023-07-29T08:47:02;4.20;;;2.97;;
27025;SDS011;14565;48.626;8.978;2023-07-29T08:49:28;13.45;;;9.98;;
27025;SDS011;14565;48.626;8.978;2023-07-29T08:51:54;32.20;;;20.77;;
27025;SDS011;14565;48.626;8.978;2023-07-29T08:54:23;5.78;;;4.32;;
27025;SDS011;14565;48.626;8.978;2023-07-29T08:56:49;1.85;;;1.60;;
27025;SDS011;14565;48.626;8.978;2023-07-29T08:59:16;3.50;;;1.30;;
27025;SDS011;14565;48.626;8.978;2023-07-29T09:01:42;3.63;;;2.70;;
27025;SDS011;14565;48.626;8.978;2023-07-29T09:04:08;6.15;;;2.03;;
27025;SDS011;14565;48.626;8.978;2023-07-29T09:06:34;6.30;;;2.60;;
27025;SDS011;14565;48.626;8.978;2023-07-29T09:09:03;4.97;;;3.28;;
27025;SDS011;14565;48.626;8.978;2023-07-29T09:11:30;10.13;;;2.88;;
27025;SDS011;14565;48.626;8.978;2023-07-29T09:13:56;5.68;;;5.00;;
27025;SDS011;14565;48.626;8.978;2023-07-29T09:16:22;28.80;;;15.80;;
27025;SDS011;14565;48.626;8.978;2023-07-29T09:18:48;21.77;;;9.77;;
27025;SDS011;14565;48.626;8.978;2023-07-29T09:21:17;26.13;;;10.63;;
27025;SDS011;14565;48.626;8.978;2023-07-29T09:23:53;20.13;;;8.13;;
27025;SDS011;14565;48.626;8.978;2023-07-29T09:26:26;14.98;;;7.05;;
27025;SDS011;14565;48.626;8.978;2023-07-29T09:28:53;10.35;;;4.95;;
27025;SDS011;14565;48.626;8.978;2023-07-29T09:31:24;18.33;;;7.30;;
27025;SDS011;14565;48.626;8.978;2023-07-29T09:33:55;28.02;;;11.18;;
27025;SDS011;14565;48.626;8.978;2023-07-29T09:36:31;25.55;;;10.40;;
27025;SDS011;14565;48.626;8.978;2023-07-29T09:38:58;38.87;;;14.87;;
27025;SDS011;14565;48.626;8.978;2023-07-29T09:41:24;30.02;;;10.43;;
27025;SDS011;14565;48.626;8.978;2023-07-29T09:43:58;15.05;;;5.18;;
27025;SDS011;14565;48.626;8.978;2023-07-29T09:46:31;23.38;;;8.98;;
27025;SDS011;14565;48.626;8.978;2023-07-29T09:48:59;33.33;;;12.13;;
27025;SDS011;14565;48.626;8.978;2023-07-29T09:51:27;58.05;;;19.30;;
27025;SDS011;14565;48.626;8.978;2023-07-29T09:53:53;33.47;;;12.25;;
27025;SDS011;14565;48.626;8.978;2023-07-29T09:56:18;37.45;;;14.90;;
27025;SDS011;14565;48.626;8.978;2023-07-29T09:58:52;26.23;;;9.80;;
27025;SDS011;14565;48.626;8.978;2023-07-29T10:01:20;29.98;;;9.85;;
27025;SDS011;14565;48.626;8.978;2023-07-29T10:03:46;41.42;;;13.95;;
27025;SDS011;14565;48.626;8.978;2023-07-29T10:06:14;25.60;;;9.13;;
27025;SDS011;14565;48.626;8.978;2023-07-29T10:08:40;23.55;;;8.65;;
27025;SDS011;14565;48.626;8.978;2023-07-29T10:13:34;25.95;;;11.05;;
27025;SDS011;14565;48.626;8.978;2023-07-29T10:16:01;64.70;;;22.27;;
27025;SDS011;14565;48.626;8.978;2023-07-29T10:18:28;24.60;;;9.57;;
27025;SDS011;14565;48.626;8.978;2023-07-29T10:20:54;24.02;;;9.10;;
27025;SDS011;14565;48.626;8.978;2023-07-29T10:23:22;52.92;;;18.95;;
27025;SDS011;14565;48.626;8.978;2023-07-29T10:25:54;24.30;;;8.88;;
27025;SDS011;14565;48.626;8.978;2023-07-29T10:28:34;44.20;;;15.93;;
27025;SDS011;14565;48.626;8.978;2023-07-29T10:31:05;28.83;;;9.75;;
27025;SDS011;14565;48.626;8.978;2023-07-29T10:33:32;46.60;;;14.10;;
27025;SDS011;14565;48.626;8.978;2023-07-29T10:35:59;6.28;;;3.05;;
27025;SDS011;14565;48.626;8.978;2023-07-29T10:38:25;47.55;;;12.85;;
27025;SDS011;14565;48.626;8.978;2023-07-29T10:40:52;63.90;;;21.10;;
27025;SDS011;14565;48.626;8.978;2023-07-29T10:45:50;21.95;;;9.30;;
27025;SDS011;14565;48.626;8.978;2023-07-29T10:56:32;14.55;;;6.53;;
27025;SDS011;14565;48.626;8.978;2023-07-29T11:01:44;5.82;;;3.00;;
27025;SDS011;14565;48.626;8.978;2023-07-29T11:15:31;3.78;;;2.17;;
27025;SDS011;14565;48.626;8.978;2023-07-29T11:17:57;13.40;;;6.80;;
27025;SDS011;14565;48.626;8.978;2023-07-29T11:20:31;3.47;;;2.13;;
27025;SDS011;14565;48.626;8.978;2023-07-29T11:22:59;4.82;;;3.90;;
27025;SDS011;14565;48.626;8.978;2023-07-29T11:25:26;5.03;;;2.22;;
27025;SDS011;14565;48.626;8.978;2023-07-29T11:27:54;4.95;;;3.22;;
27025;SDS011;14565;48.626;8.978;2023-07-29T11:30:21;9.23;;;4.90;;
27025;SDS011;14565;48.626;8.978;2023-07-29T11:32:55;7.72;;;4.88;;
27025;SDS011;14565;48.626;8.978;2023-07-29T11:35:21;6.32;;;4.82;;
27025;SDS011;14565;48.626;8.978;2023-07-29T11:37:48;10.70;;;6.13;;
27025;SDS011;14565;48.626;8.978;2023-07-29T11:40:15;21.90;;;11.88;;
27025;SDS011;14565;48.626;8.978;2023-07-29T11:42:42;17.15;;;10.20;;
27025;SDS011;14565;48.626;8.978;2023-07-29T11:45:09;13.45;;;7.30;;
27025;SDS011;14565;48.626;8.978;2023-07-29T11:47:36;14.73;;;6.20;;
27025;SDS011;14565;48.626;8.978;2023-07-29T11:50:06;17.77;;;8.60;;
27025;SDS011;14565;48.626;8.978;2023-07-29T11:52:35;7.55;;;3.50;;
27025;SDS011;14565;48.626;8.978;2023-07-29T11:55:04;18.02;;;8.82;;
27025;SDS011;14565;48.626;8.978;2023-07-29T11:57:31;4.90;;;3.42;;
27025;SDS011;14565;48.626;8.978;2023-07-29T12:00:01;8.00;;;4.82;;
27025;SDS011;14565;48.626;8.978;2023-07-29T12:02:31;9.32;;;5.45;;
27025;SDS011;14565;48.626;8.978;2023-07-29T12:04:58;15.70;;;7.90;;
27025;SDS011;14565;48.626;8.978;2023-07-29T12:07:24;7.25;;;3.78;;
27025;SDS011;14565;48.626;8.978;2023-07-29T12:09:50;11.05;;;4.90;;
27025;SDS011;14565;48.626;8.978;2023-07-29T12:12:17;2.47;;;2.10;;
27025;SDS011;14565;48.626;8.978;2023-07-29T12:14:43;7.82;;;4.63;;
27025;SDS011;14565;48.626;8.978;2023-07-29T12:17:12;4.30;;;3.03;;
27025;SDS011;14565;48.626;8.978;2023-07-29T12:19:39;9.68;;;5.05;;
27025;SDS011;14565;48.626;8.978;2023-07-29T12:22:06;4.30;;;3.03;;
27025;SDS011;14565;48.626;8.978;2023-07-29T12:24:41;4.72;;;3.40;;
27025;SDS011;14565;48.626;8.978;2023-07-29T12:27:14;5.55;;;3.47;;
27025;SDS011;14565;48.626;8.978;2023-07-29T12:29:42;7.95;;;5.50;;
27025;SDS011;14565;48.626;8.978;2023-07-29T12:32:09;10.00;;;6.18;;
27025;SDS011;14565;48.626;8.978;2023-07-29T12:34:39;21.75;;;13.30;;
27025;SDS011;14565;48.626;8.978;2023-07-29T12:37:05;10.32;;;6.40;;
27025;SDS011;14565;48.626;8.978;2023-07-29T12:39:32;13.87;;;7.37;;
27025;SDS011;14565;48.626;8.978;2023-07-29T12:42:00;4.00;;;2.63;;
27025;SDS011;14565;48.626;8.978;2023-07-29T12:44:31;12.15;;;6.45;;
27025;SDS011;14565;48.626;8.978;2023-07-29T12:47:01;16.13;;;8.75;;
27025;SDS011;14565;48.626;8.978;2023-07-29T12:49:28;6.75;;;3.22;;
27025;SDS011;14565;48.626;8.978;2023-07-29T12:51:55;6.47;;;3.40;;
27025;SDS011;14565;48.626;8.978;2023-07-29T12:54:21;3.22;;;2.20;;
27025;SDS011;14565;48.626;8.978;2023-07-29T12:56:47;9.70;;;5.00;;
27025;SDS011;14565;48.626;8.978;2023-07-29T12:59:13;6.68;;;3.63;;
27025;SDS011;14565;48.626;8.978;2023-07-29T13:01:39;6.03;;;3.40;;
27025;SDS011;14565;48.626;8.978;2023-07-29T13:04:06;6.03;;;3.42;;
27025;SDS011;14565;48.626;8.978;2023-07-29T13:06:32;4.75;;;2.50;;
27025;SDS011;14565;48.626;8.978;2023-07-29T13:08:58;5.90;;;3.50;;
27025;SDS011;14565;48.626;8.978;2023-07-29T13:11:23;2.63;;;1.88;;
27025;SDS011;14565;48.626;8.978;2023-07-29T13:13:50;6.88;;;3.83;;
27025;SDS011;14565;48.626;8.978;2023-07-29T13:16:15;8.38;;;4.35;;
27025;SDS011;14565;48.626;8.978;2023-07-29T13:18:43;5.85;;;3.80;;
27025;SDS011;14565;48.626;8.978;2023-07-29T13:21:09;7.57;;;3.80;;
27025;SDS011;14565;48.626;8.978;2023-07-29T13:23:35;7.68;;;4.22;;
27025;SDS011;14565;48.626;8.978;2023-07-29T13:26:00;3.67;;;3.05;;
27025;SDS011;14565;48.626;8.978;2023-07-29T13:28:26;4.03;;;2.25;;
27025;SDS011;14565;48.626;8.978;2023-07-29T13:30:52;3.92;;;2.15;;
27025;SDS011;14565;48.626;8.978;2023-07-29T13:33:17;3.10;;;2.70;;
27025;SDS011;14565;48.626;8.978;2023-07-29T13:35:43;3.92;;;3.33;;
27025;SDS011;14565;48.626;8.978;2023-07-29T13:38:09;2.92;;;2.40;;
27025;SDS011;14565;48.626;8.978;2023-07-29T13:40:36;4.23;;;3.13;;
27025;SDS011;14565;48.626;8.978;2023-07-29T13:43:02;5.22;;;3.78;;
27025;SDS011;14565;48.626;8.978;2023-07-29T13:45:27;4.40;;;3.17;;
27025;SDS011;14565;48.626;8.978;2023-07-29T13:47:53;6.43;;;2.78;;
27025;SDS011;14565;48.626;8.978;2023-07-29T13:50:19;5.82;;;3.45;;
27025;SDS011;14565;48.626;8.978;2023-07-29T13:52:45;5.20;;;2.92;;
27025;SDS011;14565;48.626;8.978;2023-07-29T13:55:10;8.18;;;6.15;;
27025;SDS011;14565;48.626;8.978;2023-07-29T13:57:36;3.35;;;2.80;;
27025;SDS011;14565;48.626;8.978;2023-07-29T14:00:04;6.93;;;4.28;;
27025;SDS011;14565;48.626;8.978;2023-07-29T14:02:30;6.28;;;4.55;;
27025;SDS011;14565;48.626;8.978;2023-07-29T14:04:56;6.85;;;3.90;;
27025;SDS011;14565;48.626;8.978;2023-07-29T14:07:22;6.10;;;3.33;;
27025;SDS011;14565;48.626;8.978;2023-07-29T14:09:48;6.95;;;3.70;;
27025;SDS011;14565;48.626;8.978;2023-07-29T14:12:13;4.35;;;3.40;;
27025;SDS011;14565;48.626;8.978;2023-07-29T14:14:40;6.22;;;3.28;;
27025;SDS011;14565;48.626;8.978;2023-07-29T14:17:07;3.28;;;2.13;;
27025;SDS011;14565;48.626;8.978;2023-07-29T14:19:36;6.55;;;4.88;;
27025;SDS011;14565;48.626;8.978;2023-07-29T14:22:02;5.32;;;3.30;;
27025;SDS011;14565;48.626;8.978;2023-07-29T14:24:30;4.07;;;2.65;;
27025;SDS011;14565;48.626;8.978;2023-07-29T14:26:56;3.72;;;2.85;;
27025;SDS011;14565;48.626;8.978;2023-07-29T14:29:22;3.53;;;2.55;;
27025;SDS011;14565;48.626;8.978;2023-07-29T14:31:48;3.22;;;2.10;;
27025;SDS011;14565;48.626;8.978;2023-07-29T14:34:13;2.50;;;2.10;;
27025;SDS011;14565;48.626;8.978;2023-07-29T14:36:39;3.78;;;3.13;;
27025;SDS011;14565;48.626;8.978;2023-07-29T14:39:05;4.38;;;3.22;;
27025;SDS011;14565;48.626;8.978;2023-07-29T14:41:30;3.10;;;2.80;;
27025;SDS011;14565;48.626;8.978;2023-07-29T14:43:56;2.78;;;2.20;;
27025;SDS011;14565;48.626;8.978;2023-07-29T14:46:22;2.60;;;2.40;;
27025;SDS011;14565;48.626;8.978;2023-07-29T14:48:48;4.60;;;2.65;;
27025;SDS011;14565;48.626;8.978;2023-07-29T14:51:14;3.17;;;2.83;;
27025;SDS011;14565;48.626;8.978;2023-07-29T14:53:40;3.05;;;2.60;;
27025;SDS011;14565;48.626;8.978;2023-07-29T14:56:05;6.68;;;2.80;;
27025;SDS011;14565;48.626;8.978;2023-07-29T14:58:31;3.55;;;2.10;;
27025;SDS011;14565;48.626;8.978;2023-07-29T15:00:57;2.30;;;1.80;;
27025;SDS011;14565;48.626;8.978;2023-07-29T15:03:23;2.60;;;2.00;;
27025;SDS011;14565;48.626;8.978;2023-07-29T15:05:49;2.00;;;1.80;;
27025;SDS011;14565;48.626;8.978;2023-07-29T15:08:16;2.63;;;1.80;;
27025;SDS011;14565;48.626;8.978;2023-07-29T15:10:46;2.25;;;1.90;;
27025;SDS011;14565;48.626;8.978;2023-07-29T15:13:13;2.28;;;2.08;;
27025;SDS011;14565;48.626;8.978;2023-07-29T15:15:42;3.33;;;2.03;;
27025;SDS011;14565;48.626;8.978;2023-07-29T15:18:09;2.83;;;1.92;;
27025;SDS011;14565;48.626;8.978;2023-07-29T15:20:35;2.90;;;2.35;;
27025;SDS011;14565;48.626;8.978;2023-07-29T15:23:01;2.17;;;1.85;;
27025;SDS011;14565;48.626;8.978;2023-07-29T15:25:30;4.40;;;2.85;;